EDT,Max TemperatureF,Mean TemperatureF,Min TemperatureF,Max Dew PointF,MeanDew PointF,Min DewpointF,Max Humidity, Mean Humidity, Min Humidity, Max Sea Level PressureIn, Mean Sea Level PressureIn, Min Sea Level PressureIn, Max VisibilityMiles, Mean VisibilityMiles, Min VisibilityMiles, Max Wind SpeedMPH, Mean Wind SpeedMPH, Max Gust SpeedMPH,PrecipitationIn, CloudCover, Events, WindDirDegrees
2014-5-1,58,53,47,54,41,33,86,66,46,29.84,29.80,29.75,10,10,9,21,11,32,0.01,8,Rain,243
2014-5-2,52,50,47,42,40,37,77,69,61,29.85,29.80,29.75,10,10,10,21,9,29,T,8,Rain,239
2014-5-3,61,52,42,46,41,38,83,66,49,29.83,29.76,29.66,10,10,2,30,12,43,0.11,6,Rain-Thunderstorm,218
2014-5-4,53,48,42,40,37,33,83,67,50,30.07,29.91,29.82,10,10,6,17,7,23,0.08,5,Rain,256
2014-5-5,51,43,34,39,36,32,92,73,54,30.09,30.05,29.98,10,10,10,8,2,12,0.00,3,,321
2014-5-6,58,46,34,40,34,29,92,64,35,30.11,30.06,29.99,10,10,9,17,6,21,0.00,0,,38
2014-5-7,67,55,43,45,37,31,77,59,40,30.17,30.09,30.00,10,10,6,17,6,26,0.10,3,Rain,87
2014-5-8,78,65,52,58,53,48,93,69,45,30.07,30.01,29.96,10,8,3,18,6,24,0.30,3,Rain-Thunderstorm,80
2014-5-9,84,72,60,63,57,52,76,55,34,29.96,29.88,29.79,10,9,1,26,13,38,0.20,4,Rain,205
2014-5-10,64,59,54,53,45,31,75,54,32,29.98,29.91,29.81,10,10,10,21,9,26,T,2,Rain,239
2014-5-11,71,60,49,47,41,35,71,50,28,30.13,30.07,29.99,10,10,10,10,4,29,0.00,1,,247
2014-5-12,75,70,65,64,58,50,81,70,58,30.09,30.04,29.96,10,10,7,21,9,30,0.11,3,Rain,191
2014-5-13,88,77,66,64,61,58,78,57,36,30.06,30.01,29.93,10,10,10,23,10,29,T,5,Rain-Thunderstorm,199
2014-5-14,74,67,60,63,61,57,93,83,73,30.12,30.06,29.95,10,6,0,18,6,24,0.35,6,Fog-Rain,323
2014-5-15,73,61,49,61,55,46,93,77,61,29.96,29.87,29.77,10,7,1,30,15,40,0.85,6,Rain,207
2014-5-16,49,44,39,46,39,34,93,75,56,30.04,29.98,29.92,10,10,6,17,8,23,0.10,6,Rain,270
2014-5-17,53,46,38,43,38,34,86,69,52,30.22,30.10,30.01,10,10,7,12,5,15,0.05,6,Rain,249
2014-5-18,61,50,39,43,34,28,85,57,29,30.30,30.26,30.22,10,10,10,15,7,18,0.00,0,,227
2014-5-19,66,57,47,37,32,26,56,40,24,30.31,30.26,30.20,10,10,8,16,7,21,0.00,0,,224
2014-5-20,66,59,51,50,41,36,59,48,37,30.21,30.09,29.92,10,10,10,17,8,23,T,5,Rain,154
2014-5-21,75,67,59,61,58,47,84,68,52,29.93,29.88,29.82,10,8,1,22,7,28,0.93,7,Rain-Thunderstorm,200
2014-5-22,66,59,52,61,52,48,93,80,67,30.02,29.91,29.80,10,8,0,22,7,28,T,5,Fog-Rain,255
2014-5-23,55,53,50,50,46,43,83,77,71,30.14,30.08,29.99,10,10,10,17,7,24,T,7,,275
2014-5-24,67,57,46,50,47,44,93,71,48,30.20,30.16,30.13,10,10,7,16,7,20,0.00,1,,252
2014-5-25,75,61,47,48,45,41,80,56,31,30.20,30.15,30.10,10,10,2,10,4,15,0.00,0,,233
2014-5-26,78,69,59,53,48,44,59,47,35,30.10,30.04,29.94,10,10,10,17,9,23,0.00,0,,221
2014-5-27,78,72,66,63,60,53,87,70,53,29.95,29.90,29.85,10,10,10,17,8,26,0.01,4,,239
2014-5-28,69,63,56,64,59,50,97,79,61,30.09,29.95,29.88,10,6,0,23,9,29,0.05,4,Fog-Rain,327
2014-5-29,64,57,50,54,50,47,83,73,63,30.15,30.11,30.06,10,10,10,17,8,22,0.00,2,,47
2014-5-30,74,63,51,55,51,47,100,71,41,30.22,30.17,30.13,10,6,0,9,3,10,0.00,3,Fog,353
2014-5-31,72,62,52,54,44,34,89,58,26,30.26,30.23,30.18,10,10,10,21,9,25,0.00,0,,61